sensor_id;sensor_type;location;lat;lon;timestamp;P1;durP1;ratioP1;P2;durP2;ratioP2
62056;SDS011;48016;50.284;18.860;2022-12-31T00:01:00;113.90;;;62.00;;
62056;SDS011;48016;50.284;18.860;2022-12-31T00:03:28;108.50;;;59.40;;
62056;SDS011;48016;50.284;18.860;2022-12-31T00:05:55;111.20;;;58.80;;
62056;SDS011;48016;50.284;18.860;2022-12-31T00:08:21;113.20;;;61.50;;
62056;SDS011;48016;50.284;18.860;2022-12-31T00:10:47;107.20;;;55.30;;
62056;SDS011;48016;50.284;18.860;2022-12-31T00:13:13;92.30;;;49.80;;
62056;SDS011;48016;50.284;18.860;2022-12-31T00:15:40;87.10;;;45.80;;
62056;SDS011;48016;50.284;18.860;2022-12-31T00:18:08;90.80;;;48.30;;
62056;SDS011;48016;50.284;18.860;2022-12-31T00:20:39;93.60;;;48.10;;
62056;SDS011;48016;50.284;18.860;2022-12-31T00:23:07;101.50;;;53.50;;
62056;SDS011;48016;50.284;18.860;2022-12-31T00:25:34;96.20;;;48.60;;
62056;SDS011;48016;50.284;18.860;2022-12-31T00:28:02;101.80;;;52.00;;
62056;SDS011;48016;50.284;18.860;2022-12-31T00:30:29;91.20;;;46.00;;
62056;SDS011;48016;50.284;18.860;2022-12-31T00:32:56;81.20;;;42.20;;
62056;SDS011;48016;50.284;18.860;2022-12-31T00:35:22;80.20;;;39.90;;
62056;SDS011;48016;50.284;18.860;2022-12-31T00:37:49;71.80;;;37.30;;
62056;SDS011;48016;50.284;18.860;2022-12-31T00:40:17;74.40;;;38.90;;
62056;SDS011;48016;50.284;18.860;2022-12-31T00:42:43;73.00;;;39.20;;
62056;SDS011;48016;50.284;18.860;2022-12-31T00:45:09;74.60;;;38.30;;
62056;SDS011;48016;50.284;18.860;2022-12-31T00:47:36;73.30;;;39.60;;
62056;SDS011;48016;50.284;18.860;2022-12-31T00:50:02;75.20;;;38.20;;
62056;SDS011;48016;50.284;18.860;2022-12-31T00:52:28;83.00;;;40.20;;
62056;SDS011;48016;50.284;18.860;2022-12-31T00:54:54;71.60;;;37.50;;
62056;SDS011;48016;50.284;18.860;2022-12-31T00:57:22;66.40;;;34.80;;
62056;SDS011;48016;50.284;18.860;2022-12-31T00:59:48;65.90;;;34.60;;
62056;SDS011;48016;50.284;18.860;2022-12-31T01:02:14;67.20;;;34.90;;
62056;SDS011;48016;50.284;18.860;2022-12-31T01:04:40;62.40;;;33.60;;
62056;SDS011;48016;50.284;18.860;2022-12-31T01:07:06;67.00;;;34.20;;
62056;SDS011;48016;50.284;18.860;2022-12-31T01:09:33;68.70;;;35.00;;
62056;SDS011;48016;50.284;18.860;2022-12-31T01:11:59;72.90;;;35.90;;
62056;SDS011;48016;50.284;18.860;2022-12-31T01:14:25;71.20;;;35.60;;
62056;SDS011;48016;50.284;18.860;2022-12-31T01:16:52;69.10;;;34.70;;
62056;SDS011;48016;50.284;18.860;2022-12-31T01:19:23;67.50;;;34.40;;
62056;SDS011;48016;50.284;18.860;2022-12-31T01:21:51;60.80;;;33.50;;
62056;SDS011;48016;50.284;18.860;2022-12-31T01:24:19;69.30;;;34.00;;
62056;SDS011;48016;50.284;18.860;2022-12-31T01:26:46;61.40;;;32.20;;
62056;SDS011;48016;50.284;18.860;2022-12-31T01:29:12;60.30;;;32.60;;
62056;SDS011;48016;50.284;18.860;2022-12-31T01:31:39;65.90;;;33.10;;
62056;SDS011;48016;50.284;18.860;2022-12-31T01:34:06;56.90;;;31.60;;
62056;SDS011;48016;50.284;18.860;2022-12-31T01:36:33;56.60;;;32.00;;
62056;SDS011;48016;50.284;18.860;2022-12-31T01:41:28;57.70;;;29.80;;
62056;SDS011;48016;50.284;18.860;2022-12-31T01:44:01;52.90;;;29.40;;
62056;SDS011;48016;50.284;18.860;2022-12-31T01:46:51;51.80;;;31.00;;
62056;SDS011;48016;50.284;18.860;2022-12-31T01:49:25;54.70;;;31.50;;
62056;SDS011;48016;50.284;18.860;2022-12-31T01:54:34;53.30;;;31.30;;
62056;SDS011;48016;50.284;18.860;2022-12-31T01:57:05;46.90;;;28.30;;
62056;SDS011;48016;50.284;18.860;2022-12-31T01:59:32;48.10;;;26.50;;
62056;SDS011;48016;50.284;18.860;2022-12-31T02:01:59;40.30;;;22.60;;
62056;SDS011;48016;50.284;18.860;2022-12-31T02:04:26;41.00;;;21.20;;
62056;SDS011;48016;50.284;18.860;2022-12-31T02:06:57;38.80;;;20.10;;
62056;SDS011;48016;50.284;18.860;2022-12-31T02:09:27;39.60;;;22.20;;
62056;SDS011;48016;50.284;18.860;2022-12-31T02:11:54;42.10;;;22.10;;
62056;SDS011;48016;50.284;18.860;2022-12-31T02:14:22;39.50;;;20.00;;
62056;SDS011;48016;50.284;18.860;2022-12-31T02:30:18;39.40;;;19.90;;
62056;SDS011;48016;50.284;18.860;2022-12-31T02:32:52;32.30;;;18.00;;
62056;SDS011;48016;50.284;18.860;2022-12-31T02:37:52;32.00;;;17.90;;
62056;SDS011;48016;50.284;18.860;2022-12-31T02:40:27;29.10;;;16.30;;
62056;SDS011;48016;50.284;18.860;2022-12-31T02:42:54;31.20;;;16.30;;
62056;SDS011;48016;50.284;18.860;2022-12-31T02:45:21;32.40;;;16.30;;
62056;SDS011;48016;50.284;18.860;2022-12-31T02:56:31;27.20;;;15.30;;
62056;SDS011;48016;50.284;18.860;2022-12-31T02:59:27;28.10;;;14.40;;
62056;SDS011;48016;50.284;18.860;2022-12-31T03:02:17;29.90;;;16.10;;
62056;SDS011;48016;50.284;18.860;2022-12-31T03:04:51;28.60;;;16.20;;
62056;SDS011;48016;50.284;18.860;2022-12-31T03:07:23;33.70;;;18.50;;
62056;SDS011;48016;50.284;18.860;2022-12-31T03:09:52;33.30;;;18.10;;
62056;SDS011;48016;50.284;18.860;2022-12-31T03:12:20;27.00;;;15.00;;
62056;SDS011;48016;50.284;18.860;2022-12-31T03:15:07;28.50;;;15.90;;
62056;SDS011;48016;50.284;18.860;2022-12-31T03:17:48;25.00;;;14.10;;
62056;SDS011;48016;50.284;18.860;2022-12-31T03:20:20;24.60;;;14.40;;
62056;SDS011;48016;50.284;18.860;2022-12-31T03:23:08;23.50;;;14.20;;
62056;SDS011;48016;50.284;18.860;2022-12-31T03:25:36;27.90;;;16.40;;
62056;SDS011;48016;50.284;18.860;2022-12-31T03:30:34;28.40;;;17.80;;
62056;SDS011;48016;50.284;18.860;2022-12-31T03:35:28;28.70;;;19.30;;
62056;SDS011;48016;50.284;18.860;2022-12-31T03:37:56;30.30;;;18.30;;
62056;SDS011;48016;50.284;18.860;2022-12-31T03:40:23;27.40;;;16.00;;
62056;SDS011;48016;50.284;18.860;2022-12-31T03:42:50;25.40;;;15.40;;
62056;SDS011;48016;50.284;18.860;2022-12-31T03:45:35;23.60;;;13.70;;
62056;SDS011;48016;50.284;18.860;2022-12-31T03:48:01;24.60;;;15.30;;
62056;SDS011;48016;50.284;18.860;2022-12-31T03:52:55;25.70;;;14.80;;
62056;SDS011;48016;50.284;18.860;2022-12-31T03:55:21;22.80;;;14.20;;
62056;SDS011;48016;50.284;18.860;2022-12-31T03:57:48;28.60;;;15.80;;
62056;SDS011;48016;50.284;18.860;2022-12-31T04:00:15;27.70;;;16.80;;
62056;SDS011;48016;50.284;18.860;2022-12-31T04:02:44;26.90;;;16.80;;
62056;SDS011;48016;50.284;18.860;2022-12-31T04:05:14;25.60;;;16.80;;
62056;SDS011;48016;50.284;18.860;2022-12-31T04:07:42;27.00;;;16.80;;
62056;SDS011;48016;50.284;18.860;2022-12-31T04:10:09;27.80;;;18.00;;
62056;SDS011;48016;50.284;18.860;2022-12-31T04:12:38;26.90;;;17.20;;
62056;SDS011;48016;50.284;18.860;2022-12-31T04:15:05;24.80;;;16.40;;
62056;SDS011;48016;50.284;18.860;2022-12-31T04:17:32;25.10;;;15.50;;
62056;SDS011;48016;50.284;18.860;2022-12-31T04:19:58;25.10;;;16.10;;
62056;SDS011;48016;50.284;18.860;2022-12-31T04:22:25;24.00;;;14.50;;
62056;SDS011;48016;50.284;18.860;2022-12-31T04:24:51;22.30;;;13.70;;
62056;SDS011;48016;50.284;18.860;2022-12-31T04:27:17;21.40;;;13.30;;
62056;SDS011;48016;50.284;18.860;2022-12-31T04:29:43;17.90;;;12.10;;
62056;SDS011;48016;50.284;18.860;2022-12-31T04:32:09;21.10;;;12.10;;
62056;SDS011;48016;50.284;18.860;2022-12-31T04:34:35;24.60;;;12.40;;
62056;SDS011;48016;50.284;18.860;2022-12-31T04:37:02;22.00;;;12.30;;
62056;SDS011;48016;50.284;18.860;2022-12-31T04:39:28;24.10;;;12.80;;
62056;SDS011;48016;50.284;18.860;2022-12-31T04:41:54;25.20;;;13.30;;
62056;SDS011;48016;50.284;18.860;2022-12-31T04:44:20;21.10;;;13.70;;
62056;SDS011;48016;50.284;18.860;2022-12-31T04:46:47;25.60;;;15.00;;
62056;SDS011;48016;50.284;18.860;2022-12-31T04:49:13;31.70;;;17.30;;
62056;SDS011;48016;50.284;18.860;2022-12-31T04:51:39;24.50;;;14.20;;
62056;SDS011;48016;50.284;18.860;2022-12-31T04:54:05;24.90;;;13.00;;
62056;SDS011;48016;50.284;18.860;2022-12-31T04:56:31;28.60;;;14.70;;
62056;SDS011;48016;50.284;18.860;2022-12-31T04:58:57;27.70;;;14.20;;
62056;SDS011;48016;50.284;18.860;2022-12-31T05:01:23;25.20;;;13.30;;
62056;SDS011;48016;50.284;18.860;2022-12-31T05:03:49;25.30;;;12.30;;
62056;SDS011;48016;50.284;18.860;2022-12-31T05:06:17;28.60;;;15.00;;
62056;SDS011;48016;50.284;18.860;2022-12-31T05:08:45;27.40;;;14.50;;
62056;SDS011;48016;50.284;18.860;2022-12-31T05:11:11;24.20;;;13.70;;
62056;SDS011;48016;50.284;18.860;2022-12-31T05:13:37;26.90;;;12.60;;
62056;SDS011;48016;50.284;18.860;2022-12-31T05:16:04;23.80;;;13.20;;
62056;SDS011;48016;50.284;18.860;2022-12-31T05:18:32;22.00;;;12.30;;
62056;SDS011;48016;50.284;18.860;2022-12-31T05:20:59;20.40;;;10.80;;
62056;SDS011;48016;50.284;18.860;2022-12-31T05:23:25;21.20;;;11.20;;
62056;SDS011;48016;50.284;18.860;2022-12-31T05:25:51;17.60;;;10.00;;
62056;SDS011;48016;50.284;18.860;2022-12-31T05:28:18;18.50;;;10.40;;
62056;SDS011;48016;50.284;18.860;2022-12-31T05:30:46;17.70;;;10.00;;
62056;SDS011;48016;50.284;18.860;2022-12-31T05:33:14;18.50;;;11.00;;
62056;SDS011;48016;50.284;18.860;2022-12-31T05:35:40;18.40;;;10.80;;
62056;SDS011;48016;50.284;18.860;2022-12-31T05:38:06;17.90;;;10.20;;
62056;SDS011;48016;50.284;18.860;2022-12-31T05:40:33;17.30;;;10.40;;
62056;SDS011;48016;50.284;18.860;2022-12-31T05:42:59;20.70;;;10.30;;
62056;SDS011;48016;50.284;18.860;2022-12-31T05:45:25;14.20;;;8.90;;
62056;SDS011;48016;50.284;18.860;2022-12-31T05:47:51;17.40;;;10.20;;
62056;SDS011;48016;50.284;18.860;2022-12-31T05:50:17;15.70;;;10.00;;
62056;SDS011;48016;50.284;18.860;2022-12-31T05:52:43;18.00;;;9.70;;
62056;SDS011;48016;50.284;18.860;2022-12-31T05:55:10;16.40;;;9.40;;
62056;SDS011;48016;50.284;18.860;2022-12-31T05:57:37;15.30;;;8.70;;
62056;SDS011;48016;50.284;18.860;2022-12-31T06:00:04;18.50;;;10.50;;
62056;SDS011;48016;50.284;18.860;2022-12-31T06:02:31;17.00;;;9.80;;
62056;SDS011;48016;50.284;18.860;2022-12-31T06:04:57;17.60;;;10.10;;
62056;SDS011;48016;50.284;18.860;2022-12-31T06:07:24;14.40;;;9.80;;
62056;SDS011;48016;50.284;18.860;2022-12-31T06:09:51;15.60;;;10.30;;
62056;SDS011;48016;50.284;18.860;2022-12-31T06:12:17;17.40;;;9.90;;
62056;SDS011;48016;50.284;18.860;2022-12-31T06:14:43;15.20;;;9.70;;
62056;SDS011;48016;50.284;18.860;2022-12-31T06:17:09;16.80;;;10.70;;
62056;SDS011;48016;50.284;18.860;2022-12-31T06:19:35;16.50;;;10.60;;
62056;SDS011;48016;50.284;18.860;2022-12-31T06:22:01;15.50;;;9.10;;
62056;SDS011;48016;50.284;18.860;2022-12-31T06:24:27;14.30;;;8.50;;
62056;SDS011;48016;50.284;18.860;2022-12-31T06:26:53;16.90;;;10.20;;
62056;SDS011;48016;50.284;18.860;2022-12-31T06:29:20;15.90;;;8.50;;
62056;SDS011;48016;50.284;18.860;2022-12-31T06:31:46;14.80;;;8.80;;
62056;SDS011;48016;50.284;18.860;2022-12-31T06:34:13;16.10;;;9.20;;
62056;SDS011;48016;50.284;18.860;2022-12-31T06:36:39;17.10;;;8.20;;
62056;SDS011;48016;50.284;18.860;2022-12-31T06:39:06;18.30;;;8.80;;
62056;SDS011;48016;50.284;18.860;2022-12-31T06:41:32;18.00;;;9.30;;
62056;SDS011;48016;50.284;18.860;2022-12-31T06:43:58;16.60;;;9.30;;
62056;SDS011;48016;50.284;18.860;2022-12-31T06:46:25;17.60;;;10.50;;
62056;SDS011;48016;50.284;18.860;2022-12-31T06:48:51;18.00;;;10.20;;
62056;SDS011;48016;50.284;18.860;2022-12-31T06:51:18;16.70;;;11.20;;
62056;SDS011;48016;50.284;18.860;2022-12-31T06:53:48;18.70;;;11.10;;
62056;SDS011;48016;50.284;18.860;2022-12-31T06:56:16;19.90;;;11.40;;
62056;SDS011;48016;50.284;18.860;2022-12-31T06:58:46;19.50;;;11.30;;
62056;SDS011;48016;50.284;18.860;2022-12-31T07:06:50;20.60;;;11.70;;
62056;SDS011;48016;50.284;18.860;2022-12-31T07:12:08;21.10;;;13.30;;
62056;SDS011;48016;50.284;18.860;2022-12-31T07:14:38;19.60;;;12.10;;
62056;SDS011;48016;50.284;18.860;2022-12-31T07:17:26;21.10;;;11.10;;
62056;SDS011;48016;50.284;18.860;2022-12-31T07:22:21;17.90;;;9.70;;
62056;SDS011;48016;50.284;18.860;2022-12-31T07:24:48;15.10;;;8.70;;
62056;SDS011;48016;50.284;18.860;2022-12-31T07:27:30;22.30;;;10.70;;
62056;SDS011;48016;50.284;18.860;2022-12-31T07:30:02;16.80;;;10.30;;
62056;SDS011;48016;50.284;18.860;2022-12-31T07:33:02;19.60;;;10.30;;
62056;SDS011;48016;50.284;18.860;2022-12-31T07:38:25;19.20;;;10.70;;
62056;SDS011;48016;50.284;18.860;2022-12-31T07:46:27;24.20;;;13.70;;
62056;SDS011;48016;50.284;18.860;2022-12-31T07:49:00;21.80;;;12.00;;
62056;SDS011;48016;50.284;18.860;2022-12-31T07:51:26;27.00;;;13.10;;
62056;SDS011;48016;50.284;18.860;2022-12-31T07:53:53;24.20;;;13.10;;
62056;SDS011;48016;50.284;18.860;2022-12-31T07:56:19;22.70;;;12.20;;
62056;SDS011;48016;50.284;18.860;2022-12-31T07:59:29;19.30;;;11.30;;
62056;SDS011;48016;50.284;18.860;2022-12-31T08:07:18;20.70;;;12.20;;
62056;SDS011;48016;50.284;18.860;2022-12-31T08:09:52;19.40;;;12.10;;
62056;SDS011;48016;50.284;18.860;2022-12-31T08:12:31;21.30;;;12.80;;
62056;SDS011;48016;50.284;18.860;2022-12-31T08:15:01;20.00;;;12.10;;
62056;SDS011;48016;50.284;18.860;2022-12-31T08:17:28;16.70;;;10.80;;
62056;SDS011;48016;50.284;18.860;2022-12-31T08:19:54;19.10;;;9.80;;
62056;SDS011;48016;50.284;18.860;2022-12-31T08:25:13;16.40;;;10.70;;
62056;SDS011;48016;50.284;18.860;2022-12-31T08:39:27;19.60;;;9.90;;
62056;SDS011;48016;50.284;18.860;2022-12-31T08:42:18;16.50;;;9.90;;
62056;SDS011;48016;50.284;18.860;2022-12-31T08:45:04;19.20;;;10.60;;
62056;SDS011;48016;50.284;18.860;2022-12-31T08:47:55;14.40;;;9.10;;
62056;SDS011;48016;50.284;18.860;2022-12-31T08:50:28;16.00;;;9.40;;
62056;SDS011;48016;50.284;18.860;2022-12-31T08:52:55;16.10;;;9.70;;
62056;SDS011;48016;50.284;18.860;2022-12-31T08:55:21;18.90;;;11.20;;
62056;SDS011;48016;50.284;18.860;2022-12-31T09:00:16;18.10;;;10.10;;
62056;SDS011;48016;50.284;18.860;2022-12-31T09:05:59;17.10;;;8.90;;
62056;SDS011;48016;50.284;18.860;2022-12-31T09:16:27;16.70;;;8.30;;
62056;SDS011;48016;50.284;18.860;2022-12-31T09:19:07;15.10;;;9.50;;
62056;SDS011;48016;50.284;18.860;2022-12-31T09:21:36;18.70;;;10.40;;
62056;SDS011;48016;50.284;18.860;2022-12-31T09:24:03;15.90;;;8.20;;
62056;SDS011;48016;50.284;18.860;2022-12-31T09:26:45;15.90;;;8.30;;
62056;SDS011;48016;50.284;18.860;2022-12-31T09:29:19;13.10;;;7.80;;
62056;SDS011;48016;50.284;18.860;2022-12-31T09:40:14;13.70;;;7.50;;
62056;SDS011;48016;50.284;18.860;2022-12-31T09:49:04;11.50;;;6.90;;
62056;SDS011;48016;50.284;18.860;2022-12-31T09:51:43;11.50;;;6.60;;
62056;SDS011;48016;50.284;18.860;2022-12-31T09:59:52;12.40;;;7.30;;
62056;SDS011;48016;50.284;18.860;2022-12-31T10:02:34;12.80;;;7.50;;
62056;SDS011;48016;50.284;18.860;2022-12-31T10:10:39;19.00;;;9.80;;
62056;SDS011;48016;50.284;18.860;2022-12-31T10:19:22;20.20;;;9.60;;
62056;SDS011;48016;50.284;18.860;2022-12-31T10:22:06;18.50;;;10.10;;
62056;SDS011;48016;50.284;18.860;2022-12-31T10:37:35;17.70;;;9.30;;
62056;SDS011;48016;50.284;18.860;2022-12-31T10:40:29;19.00;;;9.10;;
62056;SDS011;48016;50.284;18.860;2022-12-31T10:51:35;18.00;;;8.70;;
62056;SDS011;48016;50.284;18.860;2022-12-31T10:54:18;18.50;;;9.30;;
62056;SDS011;48016;50.284;18.860;2022-12-31T11:19:10;11.60;;;6.10;;
62056;SDS011;48016;50.284;18.860;2022-12-31T11:24:32;11.30;;;7.00;;
62056;SDS011;48016;50.284;18.860;2022-12-31T11:41:53;11.00;;;5.90;;
62056;SDS011;48016;50.284;18.860;2022-12-31T11:52:51;11.20;;;6.50;;
62056;SDS011;48016;50.284;18.860;2022-12-31T11:55:31;10.80;;;6.60;;
62056;SDS011;48016;50.284;18.860;2022-12-31T11:58:14;10.10;;;6.30;;
62056;SDS011;48016;50.284;18.860;2022-12-31T12:00:44;11.20;;;6.20;;
62056;SDS011;48016;50.284;18.860;2022-12-31T12:03:36;12.00;;;6.80;;
62056;SDS011;48016;50.284;18.860;2022-12-31T12:06:11;17.10;;;8.10;;
62056;SDS011;48016;50.284;18.860;2022-12-31T12:08:40;12.50;;;6.90;;
62056;SDS011;48016;50.284;18.860;2022-12-31T12:11:12;13.00;;;7.10;;
62056;SDS011;48016;50.284;18.860;2022-12-31T12:13:44;13.50;;;7.70;;
62056;SDS011;48016;50.284;18.860;2022-12-31T12:16:19;13.60;;;7.30;;
62056;SDS011;48016;50.284;18.860;2022-12-31T12:19:04;11.90;;;7.30;;
62056;SDS011;48016;50.284;18.860;2022-12-31T12:21:32;12.30;;;7.50;;
62056;SDS011;48016;50.284;18.860;2022-12-31T12:26:55;13.90;;;7.10;;
62056;SDS011;48016;50.284;18.860;2022-12-31T12:29:23;15.40;;;7.90;;
62056;SDS011;48016;50.284;18.860;2022-12-31T12:31:54;16.70;;;8.80;;
62056;SDS011;48016;50.284;18.860;2022-12-31T12:34:30;22.70;;;9.90;;
62056;SDS011;48016;50.284;18.860;2022-12-31T12:36:58;16.00;;;7.50;;
62056;SDS011;48016;50.284;18.860;2022-12-31T12:39:30;14.90;;;7.80;;
62056;SDS011;48016;50.284;18.860;2022-12-31T12:42:34;15.10;;;8.50;;
62056;SDS011;48016;50.284;18.860;2022-12-31T12:45:05;17.70;;;10.00;;
62056;SDS011;48016;50.284;18.860;2022-12-31T12:47:40;20.90;;;12.30;;
62056;SDS011;48016;50.284;18.860;2022-12-31T12:50:13;23.50;;;13.10;;
62056;SDS011;48016;50.284;18.860;2022-12-31T13:00:41;12.80;;;7.80;;
62056;SDS011;48016;50.284;18.860;2022-12-31T13:06:24;29.00;;;13.60;;
62056;SDS011;48016;50.284;18.860;2022-12-31T13:11:50;15.20;;;8.00;;
62056;SDS011;48016;50.284;18.860;2022-12-31T13:14:41;16.10;;;8.70;;
62056;SDS011;48016;50.284;18.860;2022-12-31T13:19:56;13.00;;;7.60;;
62056;SDS011;48016;50.284;18.860;2022-12-31T13:22:33;13.10;;;7.90;;
62056;SDS011;48016;50.284;18.860;2022-12-31T13:28:22;13.20;;;7.10;;
62056;SDS011;48016;50.284;18.860;2022-12-31T13:30:52;14.30;;;7.90;;
62056;SDS011;48016;50.284;18.860;2022-12-31T13:34:03;11.60;;;7.80;;
62056;SDS011;48016;50.284;18.860;2022-12-31T13:36:57;14.10;;;7.90;;
62056;SDS011;48016;50.284;18.860;2022-12-31T13:39:31;14.50;;;8.20;;
62056;SDS011;48016;50.284;18.860;2022-12-31T13:42:08;17.10;;;9.60;;
62056;SDS011;48016;50.284;18.860;2022-12-31T13:47:16;20.20;;;11.10;;
62056;SDS011;48016;50.284;18.860;2022-12-31T13:57:53;13.40;;;9.00;;
62056;SDS011;48016;50.284;18.860;2022-12-31T14:06:34;16.20;;;9.50;;
62056;SDS011;48016;50.284;18.860;2022-12-31T14:08:30;18.00;;;10.20;;
62056;SDS011;48016;50.284;18.860;2022-12-31T14:10:59;17.10;;;10.00;;
62056;SDS011;48016;50.284;18.860;2022-12-31T14:18:55;21.70;;;10.90;;
62056;SDS011;48016;50.284;18.860;2022-12-31T14:21:27;25.60;;;11.50;;
62056;SDS011;48016;50.284;18.860;2022-12-31T14:26:47;19.40;;;11.40;;
62056;SDS011;48016;50.284;18.860;2022-12-31T14:37:51;20.10;;;11.60;;
62056;SDS011;48016;50.284;18.860;2022-12-31T14:43:44;22.40;;;12.40;;
62056;SDS011;48016;50.284;18.860;2022-12-31T14:46:27;19.70;;;10.10;;
62056;SDS011;48016;50.284;18.860;2022-12-31T14:54:40;19.50;;;10.90;;
62056;SDS011;48016;50.284;18.860;2022-12-31T14:57:10;20.40;;;11.50;;
62056;SDS011;48016;50.284;18.860;2022-12-31T14:59:55;24.10;;;13.40;;
62056;SDS011;48016;50.284;18.860;2022-12-31T15:02:47;27.30;;;16.60;;
62056;SDS011;48016;50.284;18.860;2022-12-31T15:05:21;27.30;;;14.50;;
62056;SDS011;48016;50.284;18.860;2022-12-31T15:07:54;23.90;;;13.60;;
62056;SDS011;48016;50.284;18.860;2022-12-31T15:19:20;24.60;;;15.10;;
62056;SDS011;48016;50.284;18.860;2022-12-31T15:24:21;36.10;;;19.00;;
62056;SDS011;48016;50.284;18.860;2022-12-31T15:27:01;31.10;;;18.90;;
62056;SDS011;48016;50.284;18.860;2022-12-31T15:32:00;29.30;;;16.00;;
62056;SDS011;48016;50.284;18.860;2022-12-31T15:34:30;25.20;;;14.20;;
62056;SDS011;48016;50.284;18.860;2022-12-31T15:37:00;22.10;;;14.50;;
62056;SDS011;48016;50.284;18.860;2022-12-31T15:41:57;19.40;;;12.20;;
62056;SDS011;48016;50.284;18.860;2022-12-31T15:46:53;23.80;;;13.00;;
62056;SDS011;48016;50.284;18.860;2022-12-31T15:49:29;22.80;;;12.70;;
62056;SDS011;48016;50.284;18.860;2022-12-31T15:54:43;19.80;;;10.50;;
62056;SDS011;48016;50.284;18.860;2022-12-31T15:57:16;19.30;;;10.00;;
62056;SDS011;48016;50.284;18.860;2022-12-31T15:59:47;17.30;;;10.10;;
62056;SDS011;48016;50.284;18.860;2022-12-31T16:02:22;21.20;;;11.70;;
62056;SDS011;48016;50.284;18.860;2022-12-31T16:05:16;25.50;;;13.40;;
62056;SDS011;48016;50.284;18.860;2022-12-31T16:07:45;19.20;;;11.20;;
62056;SDS011;48016;50.284;18.860;2022-12-31T16:10:24;22.30;;;11.90;;
62056;SDS011;48016;50.284;18.860;2022-12-31T16:12:53;21.20;;;11.60;;
62056;SDS011;48016;50.284;18.860;2022-12-31T16:15:22;20.40;;;11.90;;
62056;SDS011;48016;50.284;18.860;2022-12-31T16:20:51;20.90;;;12.30;;
62056;SDS011;48016;50.284;18.860;2022-12-31T16:23:23;20.60;;;12.60;;
62056;SDS011;48016;50.284;18.860;2022-12-31T16:25:53;20.70;;;12.50;;
62056;SDS011;48016;50.284;18.860;2022-12-31T16:28:27;21.00;;;12.90;;
62056;SDS011;48016;50.284;18.860;2022-12-31T16:31:06;16.70;;;10.10;;
62056;SDS011;48016;50.284;18.860;2022-12-31T16:33:40;18.80;;;12.20;;
62056;SDS011;48016;50.284;18.860;2022-12-31T16:36:18;23.10;;;14.20;;
62056;SDS011;48016;50.284;18.860;2022-12-31T16:38:48;25.70;;;14.40;;
62056;SDS011;48016;50.284;18.860;2022-12-31T16:41:19;22.60;;;13.10;;
62056;SDS011;48016;50.284;18.860;2022-12-31T16:43:49;20.60;;;12.70;;
62056;SDS011;48016;50.284;18.860;2022-12-31T16:48:54;20.10;;;11.10;;
62056;SDS011;48016;50.284;18.860;2022-12-31T16:51:23;18.10;;;11.20;;
62056;SDS011;48016;50.284;18.860;2022-12-31T16:53:53;19.40;;;11.90;;
62056;SDS011;48016;50.284;18.860;2022-12-31T16:56:36;25.10;;;12.60;;
62056;SDS011;48016;50.284;18.860;2022-12-31T16:59:12;19.50;;;11.70;;
62056;SDS011;48016;50.284;18.860;2022-12-31T17:01:45;23.40;;;12.90;;
62056;SDS011;48016;50.284;18.860;2022-12-31T17:04:13;22.20;;;13.00;;
62056;SDS011;48016;50.284;18.860;2022-12-31T17:06:43;23.70;;;11.90;;
62056;SDS011;48016;50.284;18.860;2022-12-31T17:09:11;17.90;;;10.70;;
62056;SDS011;48016;50.284;18.860;2022-12-31T17:11:46;18.10;;;10.70;;
62056;SDS011;48016;50.284;18.860;2022-12-31T17:14:21;19.10;;;11.40;;
62056;SDS011;48016;50.284;18.860;2022-12-31T17:16:54;20.10;;;11.60;;
62056;SDS011;48016;50.284;18.860;2022-12-31T17:19:36;18.20;;;10.60;;
62056;SDS011;48016;50.284;18.860;2022-12-31T17:24:35;19.60;;;10.60;;
62056;SDS011;48016;50.284;18.860;2022-12-31T17:29:31;24.30;;;12.10;;
62056;SDS011;48016;50.284;18.860;2022-12-31T17:32:03;21.40;;;11.30;;
62056;SDS011;48016;50.284;18.860;2022-12-31T17:34:32;15.90;;;9.00;;
62056;SDS011;48016;50.284;18.860;2022-12-31T17:37:13;16.70;;;10.20;;
62056;SDS011;48016;50.284;18.860;2022-12-31T17:39:47;14.00;;;8.30;;
62056;SDS011;48016;50.284;18.860;2022-12-31T17:42:36;17.30;;;8.90;;
62056;SDS011;48016;50.284;18.860;2022-12-31T17:45:05;19.10;;;10.10;;
62056;SDS011;48016;50.284;18.860;2022-12-31T17:47:34;18.20;;;9.00;;
62056;SDS011;48016;50.284;18.860;2022-12-31T17:50:17;30.20;;;16.30;;
62056;SDS011;48016;50.284;18.860;2022-12-31T17:52:48;29.30;;;15.20;;
62056;SDS011;48016;50.284;18.860;2022-12-31T17:55:18;32.10;;;15.80;;
62056;SDS011;48016;50.284;18.860;2022-12-31T17:57:51;29.40;;;14.90;;
62056;SDS011;48016;50.284;18.860;2022-12-31T18:00:22;23.60;;;11.90;;
62056;SDS011;48016;50.284;18.860;2022-12-31T18:02:50;25.90;;;12.40;;
62056;SDS011;48016;50.284;18.860;2022-12-31T18:05:18;21.20;;;10.70;;
62056;SDS011;48016;50.284;18.860;2022-12-31T18:07:49;25.80;;;12.50;;
62056;SDS011;48016;50.284;18.860;2022-12-31T18:10:17;25.50;;;11.80;;
62056;SDS011;48016;50.284;18.860;2022-12-31T18:12:46;23.20;;;11.80;;
62056;SDS011;48016;50.284;18.860;2022-12-31T18:15:18;33.00;;;14.70;;
62056;SDS011;48016;50.284;18.860;2022-12-31T18:17:47;30.20;;;14.10;;
62056;SDS011;48016;50.284;18.860;2022-12-31T18:22:41;30.60;;;14.10;;
62056;SDS011;48016;50.284;18.860;2022-12-31T18:25:26;28.50;;;12.50;;
62056;SDS011;48016;50.284;18.860;2022-12-31T18:27:53;24.10;;;11.20;;
62056;SDS011;48016;50.284;18.860;2022-12-31T18:30:20;27.80;;;13.70;;
62056;SDS011;48016;50.284;18.860;2022-12-31T18:32:48;21.00;;;11.30;;
62056;SDS011;48016;50.284;18.860;2022-12-31T18:35:17;17.10;;;9.30;;
62056;SDS011;48016;50.284;18.860;2022-12-31T18:37:45;21.10;;;11.40;;
62056;SDS011;48016;50.284;18.860;2022-12-31T18:40:11;23.10;;;12.50;;
62056;SDS011;48016;50.284;18.860;2022-12-31T18:42:39;22.70;;;11.80;;
62056;SDS011;48016;50.284;18.860;2022-12-31T18:45:14;17.10;;;10.40;;
62056;SDS011;48016;50.284;18.860;2022-12-31T18:47:42;17.20;;;10.60;;
62056;SDS011;48016;50.284;18.860;2022-12-31T18:50:15;35.50;;;22.80;;
62056;SDS011;48016;50.284;18.860;2022-12-31T18:52:42;39.40;;;25.30;;
62056;SDS011;48016;50.284;18.860;2022-12-31T18:55:17;31.30;;;20.60;;
62056;SDS011;48016;50.284;18.860;2022-12-31T18:57:51;16.50;;;10.40;;
62056;SDS011;48016;50.284;18.860;2022-12-31T19:00:18;25.70;;;12.30;;
62056;SDS011;48016;50.284;18.860;2022-12-31T19:02:44;19.70;;;10.90;;
62056;SDS011;48016;50.284;18.860;2022-12-31T19:05:29;17.40;;;10.90;;
62056;SDS011;48016;50.284;18.860;2022-12-31T19:07:58;17.60;;;10.40;;
62056;SDS011;48016;50.284;18.860;2022-12-31T19:10:28;16.90;;;10.00;;
62056;SDS011;48016;50.284;18.860;2022-12-31T19:12:55;19.00;;;10.20;;
62056;SDS011;48016;50.284;18.860;2022-12-31T19:15:30;24.20;;;13.30;;
62056;SDS011;48016;50.284;18.860;2022-12-31T19:17:58;34.80;;;16.40;;
62056;SDS011;48016;50.284;18.860;2022-12-31T19:20:27;44.10;;;25.90;;
62056;SDS011;48016;50.284;18.860;2022-12-31T19:22:56;19.50;;;11.00;;
62056;SDS011;48016;50.284;18.860;2022-12-31T19:25:24;17.80;;;9.70;;